createdAt,value
2023-05-14T00:00:07.721Z,15.23
2023-05-14T00:02:35.945Z,14.93
2023-05-14T00:05:04.144Z,14.20
2023-05-14T00:07:32.294Z,14.52
2023-05-14T00:10:00.694Z,13.60
2023-05-14T00:12:30.098Z,13.85
2023-05-14T00:14:59.653Z,14.68
2023-05-14T00:17:27.866Z,13.93
2023-05-14T00:19:55.988Z,14.40
2023-05-14T00:22:24.137Z,14.80
2023-05-14T00:24:52.261Z,14.20
2023-05-14T00:27:20.469Z,14.73
2023-05-14T00:29:48.587Z,14.10
2023-05-14T00:32:18.086Z,15.95
2023-05-14T00:34:46.251Z,14.73
2023-05-14T00:37:14.394Z,14.00
2023-05-14T00:39:42.527Z,14.65
2023-05-14T00:42:10.737Z,14.70
2023-05-14T00:44:38.849Z,14.82
2023-05-14T00:47:07.529Z,14.85
2023-05-14T00:49:39.464Z,14.30
2023-05-14T00:52:08.722Z,16.08
2023-05-14T00:54:37.499Z,15.85
2023-05-14T00:57:07.351Z,17.02
2023-05-14T00:59:35.958Z,15.63
2023-05-14T01:02:04.136Z,15.63
2023-05-14T01:04:32.270Z,16.10
2023-05-14T01:07:10.482Z,17.40
2023-05-14T01:09:44.288Z,17.45
2023-05-14T01:12:20.464Z,18.65
2023-05-14T01:14:56.105Z,17.98
2023-05-14T01:17:27.720Z,17.92
2023-05-14T01:19:57.814Z,17.90
2023-05-14T01:22:27.282Z,17.77
2023-05-14T01:24:55.876Z,18.52
2023-05-14T01:27:43.794Z,16.75
2023-05-14T01:30:31.032Z,16.95
2023-05-14T01:33:01.972Z,18.10
2023-05-14T01:35:31.587Z,17.55
2023-05-14T01:38:02.818Z,18.50
2023-05-14T01:40:33.068Z,17.52
2023-05-14T01:43:02.141Z,17.95
2023-05-14T01:45:31.580Z,18.00
2023-05-14T01:47:59.727Z,17.98
2023-05-14T01:50:27.881Z,18.13
2023-05-14T01:52:56.704Z,18.15
2023-05-14T01:55:26.946Z,16.98
2023-05-14T01:57:55.361Z,17.80
2023-05-14T02:00:25.970Z,18.27
2023-05-14T02:02:54.527Z,17.65
2023-05-14T02:05:22.703Z,18.30
2023-05-14T02:07:51.367Z,18.45
2023-05-14T02:10:19.605Z,19.00
2023-05-14T02:12:49.112Z,17.42
2023-05-14T02:15:17.338Z,18.70
2023-05-14T02:17:45.716Z,18.80
2023-05-14T02:20:14.588Z,18.80
2023-05-14T02:22:45.708Z,18.08
2023-05-14T02:25:14.088Z,18.45
2023-05-14T02:27:42.338Z,17.98
2023-05-14T02:30:13.129Z,17.40
2023-05-14T02:32:41.458Z,18.67
2023-05-14T02:35:10.621Z,18.02
2023-05-14T02:37:38.762Z,17.05
2023-05-14T02:40:08.231Z,19.17
2023-05-14T02:42:36.618Z,18.10
2023-05-14T02:45:05.091Z,18.38
2023-05-14T02:47:37.557Z,18.30
2023-05-14T02:50:07.354Z,17.83
2023-05-14T02:52:35.612Z,17.63
2023-05-14T02:55:03.997Z,18.10
2023-05-14T02:57:32.124Z,18.95
2023-05-14T03:00:00.278Z,18.65
2023-05-14T03:02:28.986Z,18.58
2023-05-14T03:04:58.962Z,19.55
2023-05-14T03:07:27.099Z,18.65
2023-05-14T03:09:55.276Z,18.77
2023-05-14T03:12:23.444Z,17.48
2023-05-14T03:14:51.576Z,18.60
2023-05-14T03:17:19.752Z,18.50
2023-05-14T03:19:47.929Z,19.08
2023-05-14T03:22:17.483Z,17.95
2023-05-14T03:24:45.592Z,18.23
2023-05-14T03:27:13.708Z,17.33
2023-05-14T03:29:41.863Z,17.35
2023-05-14T03:32:10.045Z,16.52
2023-05-14T03:34:38.281Z,16.55
2023-05-14T03:37:06.767Z,16.25
2023-05-14T03:39:36.486Z,16.45
2023-05-14T03:42:04.966Z,15.90
2023-05-14T03:44:33.138Z,15.77
2023-05-14T03:47:01.285Z,15.23
2023-05-14T03:49:29.428Z,15.27
2023-05-14T03:51:59.376Z,15.40
2023-05-14T03:54:27.671Z,15.30
2023-05-14T03:56:57.196Z,15.57
2023-05-14T03:59:25.682Z,14.90
2023-05-14T04:01:53.818Z,15.80
2023-05-14T04:04:21.979Z,14.93
2023-05-14T04:06:50.246Z,14.73
2023-05-14T04:09:18.353Z,15.38
2023-05-14T04:11:46.590Z,15.23
2023-05-14T04:14:16.242Z,14.88
2023-05-14T04:16:44.417Z,14.93
2023-05-14T04:19:12.682Z,14.93
2023-05-14T04:21:40.915Z,15.50
2023-05-14T04:24:09.473Z,15.57
2023-05-14T04:26:37.627Z,14.95
2023-05-14T04:29:05.811Z,14.30
2023-05-14T04:31:35.406Z,14.45
2023-05-14T04:34:03.583Z,15.32
2023-05-14T04:36:31.727Z,14.82
2023-05-14T04:38:59.863Z,13.98
2023-05-14T04:41:27.996Z,13.85
2023-05-14T04:43:57.745Z,13.73
2023-05-14T04:46:25.992Z,14.07
2023-05-14T04:48:56.459Z,13.43
2023-05-14T04:51:24.697Z,12.52
2023-05-14T04:53:52.939Z,12.80
2023-05-14T04:56:21.566Z,14.05
2023-05-14T04:58:49.838Z,13.93
2023-05-14T05:01:18.095Z,13.15
2023-05-14T05:03:46.317Z,12.50
2023-05-14T05:06:15.985Z,13.57
2023-05-14T05:08:44.088Z,13.70
2023-05-14T05:11:12.425Z,13.20
2023-05-14T05:13:40.535Z,12.85
2023-05-14T05:16:08.915Z,12.93
2023-05-14T05:18:37.106Z,12.82
2023-05-14T05:21:05.298Z,13.18
2023-05-14T05:23:34.829Z,13.32
2023-05-14T05:26:03.039Z,11.70
2023-05-14T05:28:31.166Z,12.07
2023-05-14T05:30:59.362Z,12.50
2023-05-14T05:33:27.654Z,12.02
2023-05-14T05:35:55.854Z,11.80
2023-05-14T05:38:24.025Z,12.00
2023-05-14T05:40:53.849Z,11.65
2023-05-14T05:43:22.076Z,12.05
2023-05-14T05:45:50.236Z,12.60
2023-05-14T05:48:18.454Z,11.90
2023-05-14T05:50:50.197Z,11.48
2023-05-14T05:53:18.510Z,11.57
2023-05-14T05:55:46.702Z,11.45
2023-05-14T05:58:17.309Z,11.43
2023-05-14T06:00:45.654Z,11.43
2023-05-14T06:03:14.676Z,10.60
2023-05-14T06:05:43.038Z,10.80
2023-05-14T06:08:11.276Z,10.75
2023-05-14T06:10:39.712Z,10.40
2023-05-14T06:13:07.973Z,10.30
2023-05-14T06:15:37.879Z,10.32
2023-05-14T06:18:06.233Z,10.73
2023-05-14T06:20:35.271Z,10.38
2023-05-14T06:23:03.400Z,10.77
2023-05-14T06:25:31.543Z,9.95
2023-05-14T06:27:59.748Z,9.43
2023-05-14T06:30:27.929Z,9.30
2023-05-14T06:32:57.540Z,9.95
2023-05-14T06:35:26.306Z,9.60
2023-05-14T06:37:55.052Z,9.60
2023-05-14T06:40:23.556Z,9.52
2023-05-14T06:42:51.914Z,8.88
2023-05-14T06:45:20.060Z,8.02
2023-05-14T06:47:48.231Z,8.65
2023-05-14T06:50:17.925Z,7.93
2023-05-14T06:52:46.606Z,7.78
2023-05-14T06:55:14.768Z,8.98
2023-05-14T06:57:42.942Z,9.82
2023-05-14T07:00:12.276Z,9.15
2023-05-14T07:02:40.449Z,7.97
2023-05-14T07:05:09.726Z,8.32
2023-05-14T07:07:39.290Z,8.65
2023-05-14T07:10:09.236Z,8.18
2023-05-14T07:12:37.607Z,8.13
2023-05-14T07:15:06.750Z,8.95
2023-05-14T07:17:34.975Z,8.27
2023-05-14T07:20:03.303Z,8.63
2023-05-14T07:22:31.838Z,8.23
2023-05-14T07:25:02.776Z,9.57
2023-05-14T07:27:30.963Z,8.63
2023-05-14T07:29:59.085Z,8.38
2023-05-14T07:32:27.279Z,8.77
2023-05-14T07:34:57.758Z,9.13
2023-05-14T07:37:28.767Z,8.00
2023-05-14T07:39:57.255Z,9.02
2023-05-14T07:42:35.990Z,8.60
2023-05-14T07:45:06.136Z,8.35
2023-05-14T07:47:34.441Z,7.60
2023-05-14T07:50:03.511Z,8.13
2023-05-14T07:52:31.654Z,7.47
2023-05-14T07:54:59.995Z,7.10
2023-05-14T07:57:29.723Z,7.75
2023-05-14T07:59:58.203Z,7.55
2023-05-14T08:02:26.478Z,6.63
2023-05-14T08:04:55.445Z,6.80
2023-05-14T08:07:24.285Z,5.95
2023-05-14T08:09:52.471Z,5.38
2023-05-14T08:12:20.695Z,5.30
2023-05-14T08:14:50.409Z,5.10
2023-05-14T08:17:18.714Z,4.90
2023-05-14T08:19:47.183Z,4.97
2023-05-14T08:22:15.395Z,4.90
2023-05-14T08:24:43.970Z,4.97
2023-05-14T08:27:12.164Z,4.60
2023-05-14T08:29:40.434Z,4.43
2023-05-14T08:32:21.982Z,4.30
2023-05-14T08:34:51.772Z,4.32
2023-05-14T08:37:20.188Z,4.40
2023-05-14T08:39:48.393Z,4.43
2023-05-14T08:42:21.831Z,4.40
2023-05-14T08:44:53.067Z,4.22
2023-05-14T08:47:23.448Z,4.28
2023-05-14T08:49:57.028Z,3.92
2023-05-14T08:52:25.156Z,3.72
2023-05-14T08:54:54.823Z,4.50
2023-05-14T08:57:26.708Z,4.38
2023-05-14T08:59:55.018Z,3.67
2023-05-14T09:02:29.091Z,3.80
2023-05-14T09:05:00.187Z,3.80
2023-05-14T09:07:29.168Z,3.25
2023-05-14T09:09:57.654Z,3.30
2023-05-14T09:12:26.326Z,3.78
2023-05-14T09:14:54.525Z,3.38
2023-05-14T09:17:26.495Z,4.00
2023-05-14T09:19:54.700Z,3.80
2023-05-14T09:22:23.040Z,3.80
2023-05-14T09:25:05.031Z,2.97
2023-05-14T09:27:34.464Z,3.47
2023-05-14T09:30:11.899Z,3.58
2023-05-14T09:32:44.036Z,3.83
2023-05-14T09:35:18.108Z,3.03
2023-05-14T09:37:48.430Z,3.20
2023-05-14T09:40:18.358Z,3.42
2023-05-14T09:42:48.162Z,3.20
2023-05-14T09:45:16.989Z,2.80
2023-05-14T09:47:46.700Z,2.65
2023-05-14T09:50:15.033Z,3.08
2023-05-14T09:52:43.329Z,2.70
2023-05-14T09:55:11.649Z,3.30
2023-05-14T09:57:39.832Z,3.42
2023-05-14T10:00:10.291Z,3.50
2023-05-14T10:02:41.161Z,3.30
2023-05-14T10:05:13.629Z,3.75
2023-05-14T10:07:47.811Z,3.30
2023-05-14T10:10:19.980Z,3.33
2023-05-14T10:12:53.472Z,3.35
2023-05-14T10:15:28.317Z,3.35
2023-05-14T10:18:00.069Z,2.90
2023-05-14T10:20:30.580Z,2.83
2023-05-14T10:22:59.706Z,2.80
2023-05-14T10:25:28.531Z,2.47
2023-05-14T10:27:57.054Z,2.40
2023-05-14T10:30:25.618Z,2.70
2023-05-14T10:33:08.821Z,2.90
2023-05-14T10:36:05.172Z,3.08
2023-05-14T10:38:35.419Z,2.53
2023-05-14T10:41:05.274Z,3.10
2023-05-14T10:43:38.720Z,3.13
2023-05-14T10:46:08.190Z,2.85
2023-05-14T10:48:37.768Z,2.80
2023-05-14T10:51:09.770Z,2.70
2023-05-14T10:53:39.513Z,2.78
2023-05-14T10:56:09.179Z,2.50
2023-05-14T10:58:39.035Z,2.97
2023-05-14T11:01:08.835Z,3.10
2023-05-14T11:03:42.242Z,2.60
2023-05-14T11:06:13.510Z,2.63
2023-05-14T11:08:41.790Z,3.10
2023-05-14T11:11:11.137Z,2.92
2023-05-14T11:13:39.783Z,2.65
2023-05-14T11:16:21.905Z,2.85
2023-05-14T11:19:01.624Z,3.30
2023-05-14T11:21:32.542Z,3.10
2023-05-14T11:24:01.625Z,3.03
2023-05-14T11:26:29.869Z,2.75
2023-05-14T11:28:58.075Z,2.50
2023-05-14T11:31:26.915Z,3.20
2023-05-14T11:33:55.047Z,2.70
2023-05-14T11:36:23.596Z,2.88
2023-05-14T11:38:53.159Z,2.90
2023-05-14T11:41:23.225Z,3.17
2023-05-14T11:43:51.677Z,2.70
2023-05-14T11:46:20.011Z,2.90
2023-05-14T11:48:49.588Z,2.60
2023-05-14T11:51:17.764Z,2.78
2023-05-14T11:53:47.133Z,3.17
2023-05-14T11:56:16.705Z,2.70
2023-05-14T11:58:49.609Z,2.92
2023-05-14T12:01:17.865Z,2.47
2023-05-14T12:03:46.226Z,2.92
2023-05-14T12:06:14.552Z,2.60
2023-05-14T12:08:42.774Z,3.05
2023-05-14T12:11:11.025Z,2.50
2023-05-14T12:13:41.191Z,2.63
2023-05-14T12:16:09.452Z,2.60
2023-05-14T12:18:38.182Z,2.53
2023-05-14T12:21:08.438Z,2.25
2023-05-14T12:23:36.758Z,2.67
2023-05-14T12:26:06.930Z,2.50
2023-05-14T12:28:38.071Z,2.53
2023-05-14T12:31:08.221Z,2.50
2023-05-14T12:33:36.444Z,2.83
2023-05-14T12:36:20.422Z,2.85
2023-05-14T12:38:50.470Z,3.10
2023-05-14T12:41:18.980Z,2.70
2023-05-14T12:43:49.800Z,2.17
2023-05-14T12:46:19.612Z,2.53
2023-05-14T12:48:47.955Z,2.40
2023-05-14T12:51:16.276Z,2.10
2023-05-14T12:53:44.477Z,2.42
2023-05-14T12:56:12.868Z,2.72
2023-05-14T12:58:41.120Z,2.28
2023-05-14T13:01:09.410Z,2.35
2023-05-14T13:03:39.022Z,2.38
2023-05-14T13:06:07.464Z,2.50
2023-05-14T13:08:36.301Z,2.38
2023-05-14T13:11:04.597Z,2.20
2023-05-14T13:13:32.746Z,2.33
2023-05-14T13:16:01.056Z,2.25
2023-05-14T13:18:29.266Z,2.35
2023-05-14T13:20:58.815Z,2.97
2023-05-14T13:23:26.971Z,2.40
2023-05-14T13:25:55.092Z,2.35
2023-05-14T13:28:23.262Z,2.30
2023-05-14T13:31:06.919Z,3.30
2023-05-14T13:33:37.065Z,2.00
2023-05-14T13:36:07.107Z,2.40
2023-05-14T13:38:35.624Z,2.35
2023-05-14T13:41:03.837Z,2.42
2023-05-14T13:43:32.976Z,2.75
2023-05-14T13:46:01.576Z,2.83
2023-05-14T13:48:30.971Z,2.15
2023-05-14T13:50:59.306Z,2.25
2023-05-14T13:53:28.892Z,2.45
2023-05-14T13:55:58.444Z,2.20
2023-05-14T13:58:27.009Z,2.13
2023-05-14T14:00:56.570Z,2.40
2023-05-14T14:03:24.830Z,2.40
2023-05-14T14:05:53.198Z,2.10
2023-05-14T14:08:24.264Z,2.25
2023-05-14T14:10:55.490Z,2.10
2023-05-14T14:13:24.523Z,2.10
2023-05-14T14:15:52.947Z,2.20
2023-05-14T14:18:21.170Z,2.67
2023-05-14T14:20:49.435Z,2.20
2023-05-14T14:23:17.599Z,2.10
2023-05-14T14:25:45.780Z,2.50
2023-05-14T14:28:15.502Z,2.20
2023-05-14T14:30:43.887Z,2.35
2023-05-14T14:33:12.495Z,2.20
2023-05-14T14:35:40.865Z,2.35
2023-05-14T14:38:08.982Z,2.42
2023-05-14T14:40:37.232Z,2.00
2023-05-14T14:43:05.392Z,2.35
2023-05-14T14:45:34.919Z,2.25
2023-05-14T14:48:30.890Z,2.30
2023-05-14T14:50:59.372Z,1.98
2023-05-14T14:53:27.587Z,2.10
2023-05-14T14:55:55.767Z,2.17
2023-05-14T14:58:24.529Z,2.20
2023-05-14T15:00:55.404Z,1.85
2023-05-14T15:03:23.959Z,2.10
2023-05-14T15:05:53.517Z,2.00
2023-05-14T15:08:23.880Z,2.00
2023-05-14T15:10:52.146Z,2.30
2023-05-14T15:13:20.622Z,2.17
2023-05-14T15:15:49.197Z,1.90
2023-05-14T15:18:18.810Z,1.92
2023-05-14T15:20:47.083Z,1.95
2023-05-14T15:23:15.277Z,2.17
2023-05-14T15:25:43.927Z,2.20
2023-05-14T15:28:12.160Z,2.13
2023-05-14T15:30:40.297Z,2.13
2023-05-14T15:33:09.117Z,1.92
2023-05-14T15:35:39.185Z,2.03
2023-05-14T15:38:08.357Z,2.00
2023-05-14T15:40:36.533Z,2.10
2023-05-14T15:43:05.200Z,2.20
2023-05-14T15:45:34.238Z,2.15
2023-05-14T15:48:02.588Z,2.10
2023-05-14T15:50:30.869Z,2.47
2023-05-14T15:53:01.650Z,2.08
2023-05-14T15:55:29.790Z,2.28
2023-05-14T15:57:58.037Z,2.25
2023-05-14T16:00:27.068Z,2.20
2023-05-14T16:02:55.585Z,2.08
2023-05-14T16:05:23.795Z,1.90
2023-05-14T16:07:51.957Z,2.50
2023-05-14T16:10:22.565Z,2.42
2023-05-14T16:12:50.912Z,2.17
2023-05-14T16:15:19.284Z,2.15
2023-05-14T16:17:47.561Z,2.47
2023-05-14T16:20:16.675Z,2.38
2023-05-14T16:22:45.101Z,2.50
2023-05-14T16:25:13.373Z,2.20
2023-05-14T16:27:43.119Z,2.30
2023-05-14T16:30:11.972Z,2.40
2023-05-14T16:32:42.012Z,2.20
2023-05-14T16:35:10.883Z,2.15
2023-05-14T16:37:39.053Z,2.28
2023-05-14T16:40:11.181Z,2.28
2023-05-14T16:42:39.646Z,2.35
2023-05-14T16:45:10.553Z,2.38
2023-05-14T16:47:38.766Z,2.75
2023-05-14T16:50:08.164Z,2.40
2023-05-14T16:52:36.468Z,2.67
2023-05-14T16:55:04.924Z,2.75
2023-05-14T16:57:33.127Z,2.47
2023-05-14T17:00:01.386Z,2.00
2023-05-14T17:02:31.160Z,2.28
2023-05-14T17:04:59.664Z,2.67
2023-05-14T17:07:27.915Z,2.53
2023-05-14T17:09:56.014Z,2.40
2023-05-14T17:12:24.148Z,2.63
2023-05-14T17:14:52.336Z,3.00
2023-05-14T17:17:20.514Z,2.95
2023-05-14T17:19:50.045Z,3.38
2023-05-14T17:22:18.803Z,3.10
2023-05-14T17:24:46.936Z,2.80
2023-05-14T17:27:16.685Z,2.88
2023-05-14T17:29:45.063Z,3.00
2023-05-14T17:32:13.221Z,3.13
2023-05-14T17:34:41.348Z,3.25
2023-05-14T17:37:11.054Z,3.15
2023-05-14T17:39:39.210Z,3.22
2023-05-14T17:42:09.060Z,2.92
2023-05-14T17:44:37.404Z,2.95
2023-05-14T17:47:07.165Z,4.28
2023-05-14T17:49:35.577Z,3.40
2023-05-14T17:52:04.404Z,3.67
2023-05-14T17:54:35.250Z,3.67
2023-05-14T17:57:04.139Z,3.22
2023-05-14T17:59:32.279Z,3.10
2023-05-14T18:02:00.460Z,2.97
2023-05-14T18:04:28.711Z,2.90
2023-05-14T18:06:57.047Z,3.08
2023-05-14T18:09:25.213Z,3.17
2023-05-14T18:11:56.819Z,3.25
2023-05-14T18:14:25.342Z,2.90
2023-05-14T18:16:53.562Z,3.42
2023-05-14T18:19:22.004Z,4.53
2023-05-14T18:21:50.766Z,4.30
2023-05-14T18:24:18.891Z,3.35
2023-05-14T18:26:47.057Z,3.63
2023-05-14T18:29:16.879Z,3.65
2023-05-14T18:31:45.031Z,3.60
2023-05-14T18:34:13.135Z,4.03
2023-05-14T18:36:41.300Z,3.90
2023-05-14T18:39:09.671Z,3.80
2023-05-14T18:41:37.834Z,4.18
2023-05-14T18:44:05.976Z,5.90
2023-05-14T18:46:35.660Z,4.90
2023-05-14T18:49:03.875Z,5.47
2023-05-14T18:51:32.111Z,5.43
2023-05-14T18:54:00.457Z,5.00
2023-05-14T18:56:28.748Z,4.38
2023-05-14T18:58:56.977Z,4.25
2023-05-14T19:01:25.675Z,4.30
2023-05-14T19:03:56.200Z,4.43
2023-05-14T19:06:24.641Z,4.50
2023-05-14T19:08:52.808Z,4.63
2023-05-14T19:11:21.976Z,4.80
2023-05-14T19:13:50.239Z,4.32
2023-05-14T19:16:18.559Z,4.38
2023-05-14T19:18:46.740Z,4.07
2023-05-14T19:21:16.580Z,4.72
2023-05-14T19:23:45.256Z,4.32
2023-05-14T19:26:13.435Z,3.97
2023-05-14T19:28:41.685Z,4.63
2023-05-14T19:31:09.856Z,3.90
2023-05-14T19:33:38.031Z,4.35
2023-05-14T19:36:06.759Z,4.50
2023-05-14T19:38:36.301Z,5.10
2023-05-14T19:41:04.427Z,5.60
2023-05-14T19:43:32.583Z,5.32
2023-05-14T19:46:01.480Z,4.70
2023-05-14T19:48:29.845Z,6.80
2023-05-14T19:50:58.065Z,5.45
2023-05-14T19:53:29.732Z,5.32
2023-05-14T19:56:00.038Z,5.28
2023-05-14T19:58:28.241Z,5.68
2023-05-14T20:00:56.787Z,5.53
2023-05-14T20:03:26.754Z,5.05
2023-05-14T20:05:55.831Z,5.95
2023-05-14T20:08:24.955Z,5.80
2023-05-14T20:10:53.172Z,5.72
2023-05-14T20:13:25.064Z,5.57
2023-05-14T20:15:55.188Z,6.55
2023-05-14T20:18:23.534Z,6.85
2023-05-14T20:20:51.837Z,7.68
2023-05-14T20:23:20.676Z,7.47
2023-05-14T20:25:48.937Z,7.15
2023-05-14T20:28:17.047Z,7.60
2023-05-14T20:30:46.644Z,7.95
2023-05-14T20:33:15.116Z,7.65
2023-05-14T20:35:44.062Z,7.15
2023-05-14T20:38:12.718Z,7.22
2023-05-14T20:40:41.389Z,7.25
2023-05-14T20:43:09.550Z,7.55
2023-05-14T20:45:37.816Z,7.18
2023-05-14T20:48:10.158Z,7.00
2023-05-14T20:50:38.451Z,7.25
2023-05-14T20:53:06.600Z,7.47
2023-05-14T20:55:34.963Z,7.20
2023-05-14T20:58:03.182Z,7.18
2023-05-14T21:00:31.371Z,7.13
2023-05-14T21:03:00.340Z,6.68
2023-05-14T21:05:30.163Z,6.15
2023-05-14T21:07:58.305Z,7.10
2023-05-14T21:10:26.678Z,6.88
2023-05-14T21:12:54.971Z,7.38
2023-05-14T21:15:23.414Z,7.15
2023-05-14T21:17:51.817Z,7.93
2023-05-14T21:20:20.039Z,7.20
2023-05-14T21:22:49.591Z,7.85
2023-05-14T21:25:17.849Z,9.15
2023-05-14T21:27:46.282Z,7.53
2023-05-14T21:30:15.375Z,7.10
2023-05-14T21:32:43.540Z,8.20
2023-05-14T21:35:11.688Z,7.03
2023-05-14T21:37:40.529Z,7.63
2023-05-14T21:40:12.353Z,7.70
2023-05-14T21:42:40.787Z,7.50
2023-05-14T21:45:09.667Z,7.22
2023-05-14T21:47:38.666Z,7.45
2023-05-14T21:50:07.828Z,7.43
2023-05-14T21:52:36.042Z,7.65
2023-05-14T21:55:04.270Z,7.20
2023-05-14T21:57:34.579Z,8.10
2023-05-14T22:00:03.347Z,7.40
2023-05-14T22:02:32.073Z,7.07
2023-05-14T22:05:00.274Z,7.72
2023-05-14T22:07:28.532Z,7.32
2023-05-14T22:09:56.689Z,7.63
2023-05-14T22:12:24.830Z,7.30
2023-05-14T22:14:54.433Z,6.72
2023-05-14T22:17:23.268Z,6.72
2023-05-14T22:19:51.512Z,7.20
2023-05-14T22:22:19.643Z,6.97
2023-05-14T22:24:47.780Z,7.10
2023-05-14T22:27:15.945Z,6.55
2023-05-14T22:29:44.130Z,7.32
2023-05-14T22:32:13.689Z,6.55
2023-05-14T22:34:41.824Z,6.25
2023-05-14T22:37:10.130Z,7.13
2023-05-14T22:39:38.312Z,6.78
2023-05-14T22:42:06.983Z,6.50
2023-05-14T22:44:35.502Z,7.05
2023-05-14T22:47:04.952Z,6.82
2023-05-14T22:49:34.519Z,6.28
2023-05-14T22:52:03.204Z,7.22
2023-05-14T22:54:31.376Z,6.93
2023-05-14T22:56:59.622Z,6.30
2023-05-14T22:59:27.825Z,6.43
2023-05-14T23:01:55.996Z,6.70
2023-05-14T23:04:24.224Z,6.05
2023-05-14T23:06:53.802Z,6.47
2023-05-14T23:09:21.937Z,5.95
2023-05-14T23:11:50.119Z,6.05
2023-05-14T23:14:18.774Z,6.28
2023-05-14T23:16:46.964Z,6.10
2023-05-14T23:19:15.235Z,5.90
2023-05-14T23:21:43.581Z,5.43
2023-05-14T23:24:13.088Z,6.60
2023-05-14T23:26:41.279Z,5.18
2023-05-14T23:29:09.408Z,5.80
2023-05-14T23:31:38.719Z,5.70
2023-05-14T23:34:06.874Z,5.57
2023-05-14T23:36:36.669Z,6.18
2023-05-14T23:39:05.455Z,5.60
2023-05-14T23:41:34.996Z,5.05
2023-05-14T23:44:03.247Z,5.55
2023-05-14T23:46:31.768Z,5.20
2023-05-14T23:49:00.332Z,5.35
2023-05-14T23:51:28.661Z,5.43
2023-05-14T23:53:58.618Z,5.15
2023-05-14T23:56:29.100Z,5.30
2023-05-14T23:58:58.806Z,5.32
